sensor_id;sensor_type;location;lat;lon;timestamp;temperature;humidity
2913;DHT22;1466;48.778;9.166;2023-03-30T00:01:29;16.60;91.90
2913;DHT22;1466;48.778;9.166;2023-03-30T00:03:54;16.70;92.10
2913;DHT22;1466;48.778;9.166;2023-03-30T00:06:20;16.70;92.10
2913;DHT22;1466;48.778;9.166;2023-03-30T00:08:52;16.70;92.20
2913;DHT22;1466;48.778;9.166;2023-03-30T00:11:21;16.70;92.10
2913;DHT22;1466;48.778;9.166;2023-03-30T00:13:48;16.80;92.00
2913;DHT22;1466;48.778;9.166;2023-03-30T00:16:16;16.80;91.90
2913;DHT22;1466;48.778;9.166;2023-03-30T00:18:42;16.80;91.90
2913;DHT22;1466;48.778;9.166;2023-03-30T00:21:09;16.80;91.90
2913;DHT22;1466;48.778;9.166;2023-03-30T00:23:36;16.80;91.80
2913;DHT22;1466;48.778;9.166;2023-03-30T00:26:01;16.80;91.90
2913;DHT22;1466;48.778;9.166;2023-03-30T00:28:27;16.90;91.90
2913;DHT22;1466;48.778;9.166;2023-03-30T00:30:55;16.90;91.90
2913;DHT22;1466;48.778;9.166;2023-03-30T00:33:21;16.90;91.90
2913;DHT22;1466;48.778;9.166;2023-03-30T00:35:56;16.90;91.90
2913;DHT22;1466;48.778;9.166;2023-03-30T00:38:23;16.90;92.00
2913;DHT22;1466;48.778;9.166;2023-03-30T00:40:58;16.90;92.10
2913;DHT22;1466;48.778;9.166;2023-03-30T00:43:25;16.90;92.20
2913;DHT22;1466;48.778;9.166;2023-03-30T00:45:51;16.90;92.20
2913;DHT22;1466;48.778;9.166;2023-03-30T00:48:20;16.80;92.20
2913;DHT22;1466;48.778;9.166;2023-03-30T00:53:29;16.80;92.40
2913;DHT22;1466;48.778;9.166;2023-03-30T00:55:56;16.80;92.50
2913;DHT22;1466;48.778;9.166;2023-03-30T00:58:23;16.70;92.50
2913;DHT22;1466;48.778;9.166;2023-03-30T01:00:49;16.70;92.60
2913;DHT22;1466;48.778;9.166;2023-03-30T01:03:23;16.70;92.60
2913;DHT22;1466;48.778;9.166;2023-03-30T01:05:53;16.70;92.70
2913;DHT22;1466;48.778;9.166;2023-03-30T01:08:19;16.70;93.10
2913;DHT22;1466;48.778;9.166;2023-03-30T01:10:49;16.70;92.80
2913;DHT22;1466;48.778;9.166;2023-03-30T01:13:16;16.70;92.90
2913;DHT22;1466;48.778;9.166;2023-03-30T01:29:43;16.70;93.30
2913;DHT22;1466;48.778;9.166;2023-03-30T01:32:36;16.70;93.40
2913;DHT22;1466;48.778;9.166;2023-03-30T01:40:23;16.60;94.90
2913;DHT22;1466;48.778;9.166;2023-03-30T01:43:16;16.60;95.30
2913;DHT22;1466;48.778;9.166;2023-03-30T01:46:01;16.50;95.80
2913;DHT22;1466;48.778;9.166;2023-03-30T01:48:41;16.40;96.50
2913;DHT22;1466;48.778;9.166;2023-03-30T01:51:22;16.30;97.20
2913;DHT22;1466;48.778;9.166;2023-03-30T01:54:28;16.20;97.40
2913;DHT22;1466;48.778;9.166;2023-03-30T01:59:19;16.10;98.10
2913;DHT22;1466;48.778;9.166;2023-03-30T02:01:49;16.10;98.30
2913;DHT22;1466;48.778;9.166;2023-03-30T02:04:20;16.10;98.60
2913;DHT22;1466;48.778;9.166;2023-03-30T02:06:52;16.10;98.80
2913;DHT22;1466;48.778;9.166;2023-03-30T02:09:21;16.10;98.80
2913;DHT22;1466;48.778;9.166;2023-03-30T02:11:51;16.10;98.80
2913;DHT22;1466;48.778;9.166;2023-03-30T02:14:21;16.10;98.90
2913;DHT22;1466;48.778;9.166;2023-03-30T02:16:59;16.10;98.90
2913;DHT22;1466;48.778;9.166;2023-03-30T02:19:25;16.10;99.00
2913;DHT22;1466;48.778;9.166;2023-03-30T02:21:51;16.10;99.00
2913;DHT22;1466;48.778;9.166;2023-03-30T02:24:24;16.10;99.10
2913;DHT22;1466;48.778;9.166;2023-03-30T02:26:52;16.10;99.10
2913;DHT22;1466;48.778;9.166;2023-03-30T02:29:19;16.10;99.10
2913;DHT22;1466;48.778;9.166;2023-03-30T02:31:49;16.10;99.20
2913;DHT22;1466;48.778;9.166;2023-03-30T02:42:35;16.10;99.20
2913;DHT22;1466;48.778;9.166;2023-03-30T02:45:32;16.10;99.30
2913;DHT22;1466;48.778;9.166;2023-03-30T02:48:22;16.10;99.30
2913;DHT22;1466;48.778;9.166;2023-03-30T02:57:08;16.10;99.70
2913;DHT22;1466;48.778;9.166;2023-03-30T03:02:28;16.00;99.90
2913;DHT22;1466;48.778;9.166;2023-03-30T03:04:56;15.90;99.90
2913;DHT22;1466;48.778;9.166;2023-03-30T03:07:23;15.80;99.90
2913;DHT22;1466;48.778;9.166;2023-03-30T03:09:49;15.80;99.90
2913;DHT22;1466;48.778;9.166;2023-03-30T03:12:15;15.80;99.90
2913;DHT22;1466;48.778;9.166;2023-03-30T03:14:40;15.70;99.90
2913;DHT22;1466;48.778;9.166;2023-03-30T03:17:07;15.60;99.90
2913;DHT22;1466;48.778;9.166;2023-03-30T03:19:33;15.50;99.90
2913;DHT22;1466;48.778;9.166;2023-03-30T03:21:59;15.50;99.90
2913;DHT22;1466;48.778;9.166;2023-03-30T03:24:25;15.50;99.90
2913;DHT22;1466;48.778;9.166;2023-03-30T03:26:51;15.40;99.90
2913;DHT22;1466;48.778;9.166;2023-03-30T03:29:17;15.40;99.90
2913;DHT22;1466;48.778;9.166;2023-03-30T03:31:42;15.30;99.90
2913;DHT22;1466;48.778;9.166;2023-03-30T03:34:08;15.30;99.90
2913;DHT22;1466;48.778;9.166;2023-03-30T03:36:33;15.30;99.90
2913;DHT22;1466;48.778;9.166;2023-03-30T03:38:59;15.20;99.90
2913;DHT22;1466;48.778;9.166;2023-03-30T03:41:25;15.20;99.90
2913;DHT22;1466;48.778;9.166;2023-03-30T03:43:50;15.20;99.90
2913;DHT22;1466;48.778;9.166;2023-03-30T03:46:16;15.20;99.90
2913;DHT22;1466;48.778;9.166;2023-03-30T03:48:41;15.20;99.90
2913;DHT22;1466;48.778;9.166;2023-03-30T03:51:07;15.30;99.90
2913;DHT22;1466;48.778;9.166;2023-03-30T03:53:34;15.30;99.90
2913;DHT22;1466;48.778;9.166;2023-03-30T03:56:00;15.20;99.90
2913;DHT22;1466;48.778;9.166;2023-03-30T03:58:26;15.20;99.90
2913;DHT22;1466;48.778;9.166;2023-03-30T04:00:59;15.20;99.90
2913;DHT22;1466;48.778;9.166;2023-03-30T04:03:26;15.20;99.90
2913;DHT22;1466;48.778;9.166;2023-03-30T04:05:52;15.20;99.90
2913;DHT22;1466;48.778;9.166;2023-03-30T04:08:18;15.20;99.90
2913;DHT22;1466;48.778;9.166;2023-03-30T04:10:44;15.20;99.90
2913;DHT22;1466;48.778;9.166;2023-03-30T04:13:09;15.20;99.90
2913;DHT22;1466;48.778;9.166;2023-03-30T04:15:35;15.20;99.90
2913;DHT22;1466;48.778;9.166;2023-03-30T04:18:00;15.20;99.90
2913;DHT22;1466;48.778;9.166;2023-03-30T04:20:27;15.20;99.90
2913;DHT22;1466;48.778;9.166;2023-03-30T04:22:54;15.20;99.90
2913;DHT22;1466;48.778;9.166;2023-03-30T04:25:21;15.20;99.90
2913;DHT22;1466;48.778;9.166;2023-03-30T04:27:53;15.20;99.90
2913;DHT22;1466;48.778;9.166;2023-03-30T04:30:19;15.20;99.90
2913;DHT22;1466;48.778;9.166;2023-03-30T04:32:46;15.20;99.90
2913;DHT22;1466;48.778;9.166;2023-03-30T04:35:19;15.30;99.90
2913;DHT22;1466;48.778;9.166;2023-03-30T04:37:45;15.20;99.90
2913;DHT22;1466;48.778;9.166;2023-03-30T04:40:11;15.20;99.90
2913;DHT22;1466;48.778;9.166;2023-03-30T04:42:37;15.30;99.90
2913;DHT22;1466;48.778;9.166;2023-03-30T04:45:04;15.30;99.90
2913;DHT22;1466;48.778;9.166;2023-03-30T04:47:30;15.30;99.90
2913;DHT22;1466;48.778;9.166;2023-03-30T04:49:56;15.30;99.90
2913;DHT22;1466;48.778;9.166;2023-03-30T04:52:22;15.30;99.90
2913;DHT22;1466;48.778;9.166;2023-03-30T04:54:47;15.30;99.90
2913;DHT22;1466;48.778;9.166;2023-03-30T04:57:14;15.30;99.90
2913;DHT22;1466;48.778;9.166;2023-03-30T04:59:41;15.30;99.90
2913;DHT22;1466;48.778;9.166;2023-03-30T05:02:08;15.30;99.90
2913;DHT22;1466;48.778;9.166;2023-03-30T05:04:34;15.30;99.90
2913;DHT22;1466;48.778;9.166;2023-03-30T05:07:00;15.30;99.90
2913;DHT22;1466;48.778;9.166;2023-03-30T05:09:27;15.20;99.90
2913;DHT22;1466;48.778;9.166;2023-03-30T05:11:52;15.20;99.90
2913;DHT22;1466;48.778;9.166;2023-03-30T05:14:18;15.20;99.90
2913;DHT22;1466;48.778;9.166;2023-03-30T05:16:44;15.20;99.90
2913;DHT22;1466;48.778;9.166;2023-03-30T05:19:10;15.20;99.90
2913;DHT22;1466;48.778;9.166;2023-03-30T05:21:36;15.20;99.90
2913;DHT22;1466;48.778;9.166;2023-03-30T05:24:02;15.20;99.90
2913;DHT22;1466;48.778;9.166;2023-03-30T05:26:27;15.30;99.90
2913;DHT22;1466;48.778;9.166;2023-03-30T05:28:53;15.30;99.90
2913;DHT22;1466;48.778;9.166;2023-03-30T05:31:19;15.30;99.90
2913;DHT22;1466;48.778;9.166;2023-03-30T05:33:45;15.30;99.90
2913;DHT22;1466;48.778;9.166;2023-03-30T05:36:11;15.40;99.90
2913;DHT22;1466;48.778;9.166;2023-03-30T05:38:36;15.40;99.90
2913;DHT22;1466;48.778;9.166;2023-03-30T05:41:02;15.40;99.90
2913;DHT22;1466;48.778;9.166;2023-03-30T05:43:30;15.50;99.90
2913;DHT22;1466;48.778;9.166;2023-03-30T05:45:55;15.50;99.90
2913;DHT22;1466;48.778;9.166;2023-03-30T05:48:21;15.50;99.90
2913;DHT22;1466;48.778;9.166;2023-03-30T05:50:47;15.50;99.90
2913;DHT22;1466;48.778;9.166;2023-03-30T05:53:13;15.50;99.90
2913;DHT22;1466;48.778;9.166;2023-03-30T05:55:38;15.50;99.90
2913;DHT22;1466;48.778;9.166;2023-03-30T05:58:04;15.50;99.90
2913;DHT22;1466;48.778;9.166;2023-03-30T06:00:30;15.50;99.90
2913;DHT22;1466;48.778;9.166;2023-03-30T06:02:58;15.50;99.90
2913;DHT22;1466;48.778;9.166;2023-03-30T06:05:24;15.50;99.90
2913;DHT22;1466;48.778;9.166;2023-03-30T06:07:50;15.50;99.90
2913;DHT22;1466;48.778;9.166;2023-03-30T06:10:16;15.40;99.90
2913;DHT22;1466;48.778;9.166;2023-03-30T06:12:41;15.50;99.90
2913;DHT22;1466;48.778;9.166;2023-03-30T06:15:07;15.50;99.90
2913;DHT22;1466;48.778;9.166;2023-03-30T06:17:34;15.50;99.90
2913;DHT22;1466;48.778;9.166;2023-03-30T06:20:02;15.50;99.90
2913;DHT22;1466;48.778;9.166;2023-03-30T06:22:33;15.50;99.90
2913;DHT22;1466;48.778;9.166;2023-03-30T06:24:59;15.50;99.90
2913;DHT22;1466;48.778;9.166;2023-03-30T06:27:25;15.50;99.90
2913;DHT22;1466;48.778;9.166;2023-03-30T06:29:50;15.50;99.90
2913;DHT22;1466;48.778;9.166;2023-03-30T06:32:17;15.60;99.90
2913;DHT22;1466;48.778;9.166;2023-03-30T06:34:43;15.70;99.90
2913;DHT22;1466;48.778;9.166;2023-03-30T06:37:08;15.60;99.90
2913;DHT22;1466;48.778;9.166;2023-03-30T06:39:34;15.70;99.90
2913;DHT22;1466;48.778;9.166;2023-03-30T06:42:03;15.70;99.90
2913;DHT22;1466;48.778;9.166;2023-03-30T06:44:28;15.70;99.90
2913;DHT22;1466;48.778;9.166;2023-03-30T06:46:54;15.70;99.90
2913;DHT22;1466;48.778;9.166;2023-03-30T06:49:20;15.70;99.90
2913;DHT22;1466;48.778;9.166;2023-03-30T06:51:46;15.80;99.90
2913;DHT22;1466;48.778;9.166;2023-03-30T06:54:11;15.70;99.90
2913;DHT22;1466;48.778;9.166;2023-03-30T06:56:37;15.70;99.90
2913;DHT22;1466;48.778;9.166;2023-03-30T06:59:03;15.60;99.90
2913;DHT22;1466;48.778;9.166;2023-03-30T07:01:29;15.70;99.90
2913;DHT22;1466;48.778;9.166;2023-03-30T07:03:55;15.70;99.90
2913;DHT22;1466;48.778;9.166;2023-03-30T07:06:21;15.80;99.90
2913;DHT22;1466;48.778;9.166;2023-03-30T07:08:47;15.80;99.90
2913;DHT22;1466;48.778;9.166;2023-03-30T07:11:13;15.80;99.90
2913;DHT22;1466;48.778;9.166;2023-03-30T07:13:39;15.80;99.90
2913;DHT22;1466;48.778;9.166;2023-03-30T07:16:05;15.80;99.90
2913;DHT22;1466;48.778;9.166;2023-03-30T07:18:31;15.80;99.90
2913;DHT22;1466;48.778;9.166;2023-03-30T07:20:57;15.60;99.90
2913;DHT22;1466;48.778;9.166;2023-03-30T07:23:23;15.50;99.90
2913;DHT22;1466;48.778;9.166;2023-03-30T07:25:49;15.30;99.90
2913;DHT22;1466;48.778;9.166;2023-03-30T07:28:15;15.20;99.90
2913;DHT22;1466;48.778;9.166;2023-03-30T07:30:41;15.10;99.90
2913;DHT22;1466;48.778;9.166;2023-03-30T07:33:07;15.00;99.90
2913;DHT22;1466;48.778;9.166;2023-03-30T07:35:33;14.90;99.90
2913;DHT22;1466;48.778;9.166;2023-03-30T07:37:58;14.80;99.90
2913;DHT22;1466;48.778;9.166;2023-03-30T07:40:24;14.70;99.90
2913;DHT22;1466;48.778;9.166;2023-03-30T07:42:49;14.60;99.90
2913;DHT22;1466;48.778;9.166;2023-03-30T07:45:15;14.70;99.90
2913;DHT22;1466;48.778;9.166;2023-03-30T07:47:41;14.70;99.90
2913;DHT22;1466;48.778;9.166;2023-03-30T07:50:07;14.60;99.90
2913;DHT22;1466;48.778;9.166;2023-03-30T07:52:33;14.60;99.90
2913;DHT22;1466;48.778;9.166;2023-03-30T07:54:58;14.60;99.90
2913;DHT22;1466;48.778;9.166;2023-03-30T07:57:25;14.60;99.90
2913;DHT22;1466;48.778;9.166;2023-03-30T07:59:51;14.70;99.90
2913;DHT22;1466;48.778;9.166;2023-03-30T08:02:17;14.70;99.90
2913;DHT22;1466;48.778;9.166;2023-03-30T08:04:43;14.80;99.90
2913;DHT22;1466;48.778;9.166;2023-03-30T08:07:09;14.80;99.90
2913;DHT22;1466;48.778;9.166;2023-03-30T08:09:35;14.80;99.90
2913;DHT22;1466;48.778;9.166;2023-03-30T08:12:01;14.80;99.90
2913;DHT22;1466;48.778;9.166;2023-03-30T08:14:27;14.80;99.90
2913;DHT22;1466;48.778;9.166;2023-03-30T08:16:54;14.80;99.90
2913;DHT22;1466;48.778;9.166;2023-03-30T08:19:21;14.60;99.90
2913;DHT22;1466;48.778;9.166;2023-03-30T08:21:47;14.50;99.90
2913;DHT22;1466;48.778;9.166;2023-03-30T08:24:13;14.40;99.90
2913;DHT22;1466;48.778;9.166;2023-03-30T08:26:38;14.40;99.90
2913;DHT22;1466;48.778;9.166;2023-03-30T08:29:04;14.40;99.90
2913;DHT22;1466;48.778;9.166;2023-03-30T08:31:31;14.30;99.90
2913;DHT22;1466;48.778;9.166;2023-03-30T08:33:57;14.40;99.90
2913;DHT22;1466;48.778;9.166;2023-03-30T08:36:23;14.50;99.90
2913;DHT22;1466;48.778;9.166;2023-03-30T08:38:49;14.50;99.90
2913;DHT22;1466;48.778;9.166;2023-03-30T08:44:44;14.70;99.90
2913;DHT22;1466;48.778;9.166;2023-03-30T08:47:15;14.80;99.90
2913;DHT22;1466;48.778;9.166;2023-03-30T08:49:48;14.90;99.90
2913;DHT22;1466;48.778;9.166;2023-03-30T08:52:22;14.90;99.90
2913;DHT22;1466;48.778;9.166;2023-03-30T08:54:49;14.80;99.90
2913;DHT22;1466;48.778;9.166;2023-03-30T08:59:52;14.80;99.90
2913;DHT22;1466;48.778;9.166;2023-03-30T09:02:31;14.70;99.90
2913;DHT22;1466;48.778;9.166;2023-03-30T09:05:19;14.70;99.90
2913;DHT22;1466;48.778;9.166;2023-03-30T09:08:17;14.70;99.90
2913;DHT22;1466;48.778;9.166;2023-03-30T09:10:49;14.70;99.90
2913;DHT22;1466;48.778;9.166;2023-03-30T09:13:17;14.70;99.90
2913;DHT22;1466;48.778;9.166;2023-03-30T09:15:55;14.80;99.90
2913;DHT22;1466;48.778;9.166;2023-03-30T09:18:31;14.80;99.90
2913;DHT22;1466;48.778;9.166;2023-03-30T09:21:01;14.80;99.90
2913;DHT22;1466;48.778;9.166;2023-03-30T09:23:28;14.80;99.90
2913;DHT22;1466;48.778;9.166;2023-03-30T09:26:19;14.80;99.90
2913;DHT22;1466;48.778;9.166;2023-03-30T09:29:13;14.90;99.90
2913;DHT22;1466;48.778;9.166;2023-03-30T09:31:48;14.90;99.90
2913;DHT22;1466;48.778;9.166;2023-03-30T09:34:36;15.00;99.90
2913;DHT22;1466;48.778;9.166;2023-03-30T09:37:13;15.00;99.90
2913;DHT22;1466;48.778;9.166;2023-03-30T09:39:43;15.20;99.90
2913;DHT22;1466;48.778;9.166;2023-03-30T09:42:30;15.20;99.90
2913;DHT22;1466;48.778;9.166;2023-03-30T09:45:16;15.30;99.90
2913;DHT22;1466;48.778;9.166;2023-03-30T09:47:44;15.20;99.90
2913;DHT22;1466;48.778;9.166;2023-03-30T09:52:58;15.20;99.90
2913;DHT22;1466;48.778;9.166;2023-03-30T09:55:33;15.30;99.90
2913;DHT22;1466;48.778;9.166;2023-03-30T09:58:19;15.30;99.90
2913;DHT22;1466;48.778;9.166;2023-03-30T10:01:12;15.30;99.90
2913;DHT22;1466;48.778;9.166;2023-03-30T10:03:42;15.30;99.90
2913;DHT22;1466;48.778;9.166;2023-03-30T10:06:10;15.30;99.90
2913;DHT22;1466;48.778;9.166;2023-03-30T10:08:51;15.30;99.90
2913;DHT22;1466;48.778;9.166;2023-03-30T10:11:31;15.50;99.90
2913;DHT22;1466;48.778;9.166;2023-03-30T10:13:59;15.80;99.90
2913;DHT22;1466;48.778;9.166;2023-03-30T10:16:28;15.90;99.90
2913;DHT22;1466;48.778;9.166;2023-03-30T10:18:58;16.10;99.90
2913;DHT22;1466;48.778;9.166;2023-03-30T10:21:29;16.20;99.90
2913;DHT22;1466;48.778;9.166;2023-03-30T10:26:29;16.50;99.90
2913;DHT22;1466;48.778;9.166;2023-03-30T10:29:00;16.50;99.90
2913;DHT22;1466;48.778;9.166;2023-03-30T10:31:27;16.50;99.90
2913;DHT22;1466;48.778;9.166;2023-03-30T10:33:58;16.40;99.90
2913;DHT22;1466;48.778;9.166;2023-03-30T10:36:36;16.40;99.90
2913;DHT22;1466;48.778;9.166;2023-03-30T10:39:12;16.30;99.90
2913;DHT22;1466;48.778;9.166;2023-03-30T10:41:40;16.30;99.90
2913;DHT22;1466;48.778;9.166;2023-03-30T10:46:50;16.30;99.90
2913;DHT22;1466;48.778;9.166;2023-03-30T10:52:12;16.30;99.90
2913;DHT22;1466;48.778;9.166;2023-03-30T10:57:20;16.50;99.90
2913;DHT22;1466;48.778;9.166;2023-03-30T11:00:16;16.50;99.90
2913;DHT22;1466;48.778;9.166;2023-03-30T11:02:47;16.50;99.90
2913;DHT22;1466;48.778;9.166;2023-03-30T11:08:01;16.50;99.90
2913;DHT22;1466;48.778;9.166;2023-03-30T11:10:39;16.50;99.90
2913;DHT22;1466;48.778;9.166;2023-03-30T11:13:12;16.70;99.90
2913;DHT22;1466;48.778;9.166;2023-03-30T11:18:25;16.90;99.90
2913;DHT22;1466;48.778;9.166;2023-03-30T11:20:58;17.00;99.90
2913;DHT22;1466;48.778;9.166;2023-03-30T11:26:08;17.10;99.90
2913;DHT22;1466;48.778;9.166;2023-03-30T11:36:52;17.30;99.90
2913;DHT22;1466;48.778;9.166;2023-03-30T11:39:24;17.40;99.90
2913;DHT22;1466;48.778;9.166;2023-03-30T11:42:02;17.40;99.90
2913;DHT22;1466;48.778;9.166;2023-03-30T11:44:30;17.50;99.90
2913;DHT22;1466;48.778;9.166;2023-03-30T11:47:16;17.40;99.90
2913;DHT22;1466;48.778;9.166;2023-03-30T11:55:39;17.40;99.90
2913;DHT22;1466;48.778;9.166;2023-03-30T11:58:19;17.40;99.90
2913;DHT22;1466;48.778;9.166;2023-03-30T12:03:37;17.50;99.90
2913;DHT22;1466;48.778;9.166;2023-03-30T12:09:12;17.50;99.90
2913;DHT22;1466;48.778;9.166;2023-03-30T12:11:48;17.50;99.90
2913;DHT22;1466;48.778;9.166;2023-03-30T12:19:58;17.60;99.90
2913;DHT22;1466;48.778;9.166;2023-03-30T12:25:27;17.40;99.90
2913;DHT22;1466;48.778;9.166;2023-03-30T12:28:10;17.40;99.90
2913;DHT22;1466;48.778;9.166;2023-03-30T12:31:03;17.40;99.90
2913;DHT22;1466;48.778;9.166;2023-03-30T12:35:55;17.50;99.90
2913;DHT22;1466;48.778;9.166;2023-03-30T12:38:23;17.60;99.90
2913;DHT22;1466;48.778;9.166;2023-03-30T12:41:11;17.80;99.90
2913;DHT22;1466;48.778;9.166;2023-03-30T12:46:30;17.90;99.90
2913;DHT22;1466;48.778;9.166;2023-03-30T12:49:10;18.00;99.90
2913;DHT22;1466;48.778;9.166;2023-03-30T12:57:50;18.10;99.90
2913;DHT22;1466;48.778;9.166;2023-03-30T13:05:34;18.10;99.90
2913;DHT22;1466;48.778;9.166;2023-03-30T13:08:46;18.00;99.90
2913;DHT22;1466;48.778;9.166;2023-03-30T13:11:05;18.10;99.90
2913;DHT22;1466;48.778;9.166;2023-03-30T13:13:57;18.00;99.80
2913;DHT22;1466;48.778;9.166;2023-03-30T13:30:01;18.10;96.80
2913;DHT22;1466;48.778;9.166;2023-03-30T13:46:03;18.10;96.30
2913;DHT22;1466;48.778;9.166;2023-03-30T13:51:04;18.00;97.10
2913;DHT22;1466;48.778;9.166;2023-03-30T13:53:41;18.00;97.60
2913;DHT22;1466;48.778;9.166;2023-03-30T13:56:09;18.10;97.70
2913;DHT22;1466;48.778;9.166;2023-03-30T13:58:36;18.10;97.50
2913;DHT22;1466;48.778;9.166;2023-03-30T14:01:11;18.10;97.20
2913;DHT22;1466;48.778;9.166;2023-03-30T14:03:48;18.10;96.90
2913;DHT22;1466;48.778;9.166;2023-03-30T14:06:19;18.20;96.70
2913;DHT22;1466;48.778;9.166;2023-03-30T14:08:49;18.40;96.30
2913;DHT22;1466;48.778;9.166;2023-03-30T14:14:03;18.60;96.00
2913;DHT22;1466;48.778;9.166;2023-03-30T14:16:39;18.60;95.30
2913;DHT22;1466;48.778;9.166;2023-03-30T14:21:40;18.50;94.70
2913;DHT22;1466;48.778;9.166;2023-03-30T14:24:11;18.40;94.40
2913;DHT22;1466;48.778;9.166;2023-03-30T14:26:40;18.40;94.40
2913;DHT22;1466;48.778;9.166;2023-03-30T14:29:13;18.30;94.60
2913;DHT22;1466;48.778;9.166;2023-03-30T14:31:40;18.20;94.30
2913;DHT22;1466;48.778;9.166;2023-03-30T14:34:27;18.20;94.40
2913;DHT22;1466;48.778;9.166;2023-03-30T14:37:13;18.10;94.00
2913;DHT22;1466;48.778;9.166;2023-03-30T14:39:41;18.10;94.10
2913;DHT22;1466;48.778;9.166;2023-03-30T14:44:47;18.20;94.10
2913;DHT22;1466;48.778;9.166;2023-03-30T14:47:14;18.10;93.10
2913;DHT22;1466;48.778;9.166;2023-03-30T14:49:42;18.10;93.30
2913;DHT22;1466;48.778;9.166;2023-03-30T14:54:36;18.00;93.60
2913;DHT22;1466;48.778;9.166;2023-03-30T14:57:04;17.90;95.10
2913;DHT22;1466;48.778;9.166;2023-03-30T14:59:34;17.70;95.70
2913;DHT22;1466;48.778;9.166;2023-03-30T15:02:03;17.60;96.10
2913;DHT22;1466;48.778;9.166;2023-03-30T15:04:34;17.60;96.10
2913;DHT22;1466;48.778;9.166;2023-03-30T15:07:01;17.60;96.00
2913;DHT22;1466;48.778;9.166;2023-03-30T15:09:36;17.60;95.90
2913;DHT22;1466;48.778;9.166;2023-03-30T15:12:03;17.50;95.90
2913;DHT22;1466;48.778;9.166;2023-03-30T15:14:34;17.40;96.10
2913;DHT22;1466;48.778;9.166;2023-03-30T15:17:10;17.30;95.90
2913;DHT22;1466;48.778;9.166;2023-03-30T15:19:39;17.30;96.20
2913;DHT22;1466;48.778;9.166;2023-03-30T15:22:22;17.20;96.30
2913;DHT22;1466;48.778;9.166;2023-03-30T15:24:49;17.20;96.30
2913;DHT22;1466;48.778;9.166;2023-03-30T15:27:16;17.10;96.40
2913;DHT22;1466;48.778;9.166;2023-03-30T15:29:43;17.20;96.50
2913;DHT22;1466;48.778;9.166;2023-03-30T15:34:35;17.30;96.20
2913;DHT22;1466;48.778;9.166;2023-03-30T15:37:01;17.30;96.30
2913;DHT22;1466;48.778;9.166;2023-03-30T15:39:29;17.30;96.60
2913;DHT22;1466;48.778;9.166;2023-03-30T15:42:06;17.10;96.90
2913;DHT22;1466;48.778;9.166;2023-03-30T15:44:34;16.90;97.40
2913;DHT22;1466;48.778;9.166;2023-03-30T15:47:01;16.90;98.30
2913;DHT22;1466;48.778;9.166;2023-03-30T15:49:38;17.00;98.60
2913;DHT22;1466;48.778;9.166;2023-03-30T15:52:15;17.00;98.60
2913;DHT22;1466;48.778;9.166;2023-03-30T15:54:47;16.80;98.90
2913;DHT22;1466;48.778;9.166;2023-03-30T15:57:23;16.70;99.20
2913;DHT22;1466;48.778;9.166;2023-03-30T16:02:38;16.90;96.40
2913;DHT22;1466;48.778;9.166;2023-03-30T16:05:05;17.00;95.70
2913;DHT22;1466;48.778;9.166;2023-03-30T16:07:32;17.10;95.00
2913;DHT22;1466;48.778;9.166;2023-03-30T16:09:59;17.10;94.70
2913;DHT22;1466;48.778;9.166;2023-03-30T16:12:26;17.20;94.80
2913;DHT22;1466;48.778;9.166;2023-03-30T16:14:53;17.30;93.90
2913;DHT22;1466;48.778;9.166;2023-03-30T16:17:20;17.20;93.30
2913;DHT22;1466;48.778;9.166;2023-03-30T16:19:45;17.10;93.70
2913;DHT22;1466;48.778;9.166;2023-03-30T16:22:12;17.10;93.40
2913;DHT22;1466;48.778;9.166;2023-03-30T16:24:39;17.20;93.60
2913;DHT22;1466;48.778;9.166;2023-03-30T16:27:07;17.10;92.90
2913;DHT22;1466;48.778;9.166;2023-03-30T16:29:34;17.00;93.00
2913;DHT22;1466;48.778;9.166;2023-03-30T16:31:59;16.90;93.00
2913;DHT22;1466;48.778;9.166;2023-03-30T16:34:25;16.80;92.90
2913;DHT22;1466;48.778;9.166;2023-03-30T16:36:51;16.80;93.10
2913;DHT22;1466;48.778;9.166;2023-03-30T16:41:49;16.70;93.30
2913;DHT22;1466;48.778;9.166;2023-03-30T16:44:16;16.60;93.40
2913;DHT22;1466;48.778;9.166;2023-03-30T16:46:42;16.60;93.50
2913;DHT22;1466;48.778;9.166;2023-03-30T16:49:26;16.70;93.70
2913;DHT22;1466;48.778;9.166;2023-03-30T16:51:52;16.70;93.80
2913;DHT22;1466;48.778;9.166;2023-03-30T16:54:18;16.70;93.80
2913;DHT22;1466;48.778;9.166;2023-03-30T16:56:45;16.60;93.80
2913;DHT22;1466;48.778;9.166;2023-03-30T16:59:22;16.40;93.90
2913;DHT22;1466;48.778;9.166;2023-03-30T17:01:49;16.30;94.30
2913;DHT22;1466;48.778;9.166;2023-03-30T17:04:15;16.20;94.50
2913;DHT22;1466;48.778;9.166;2023-03-30T17:06:40;16.10;94.70
2913;DHT22;1466;48.778;9.166;2023-03-30T17:09:11;16.10;95.00
2913;DHT22;1466;48.778;9.166;2023-03-30T17:11:37;16.00;95.10
2913;DHT22;1466;48.778;9.166;2023-03-30T17:14:04;16.00;95.30
2913;DHT22;1466;48.778;9.166;2023-03-30T17:16:29;16.00;95.50
2913;DHT22;1466;48.778;9.166;2023-03-30T17:18:55;15.90;95.50
2913;DHT22;1466;48.778;9.166;2023-03-30T17:21:21;15.90;95.60
2913;DHT22;1466;48.778;9.166;2023-03-30T17:23:47;15.90;95.70
2913;DHT22;1466;48.778;9.166;2023-03-30T17:26:14;15.90;95.60
2913;DHT22;1466;48.778;9.166;2023-03-30T17:28:40;16.00;95.60
2913;DHT22;1466;48.778;9.166;2023-03-30T17:31:18;16.00;95.70
2913;DHT22;1466;48.778;9.166;2023-03-30T17:33:45;16.00;95.70
2913;DHT22;1466;48.778;9.166;2023-03-30T17:38:39;16.00;95.70
2913;DHT22;1466;48.778;9.166;2023-03-30T17:41:08;15.90;95.70
2913;DHT22;1466;48.778;9.166;2023-03-30T17:43:35;15.90;95.80
2913;DHT22;1466;48.778;9.166;2023-03-30T17:46:01;15.80;95.80
2913;DHT22;1466;48.778;9.166;2023-03-30T17:48:26;15.80;95.80
2913;DHT22;1466;48.778;9.166;2023-03-30T17:50:52;15.70;95.90
2913;DHT22;1466;48.778;9.166;2023-03-30T17:53:19;15.70;96.00
2913;DHT22;1466;48.778;9.166;2023-03-30T17:55:47;15.80;96.20
2913;DHT22;1466;48.778;9.166;2023-03-30T17:58:20;15.70;96.10
2913;DHT22;1466;48.778;9.166;2023-03-30T18:00:47;15.70;96.00
2913;DHT22;1466;48.778;9.166;2023-03-30T18:03:17;15.70;96.10
2913;DHT22;1466;48.778;9.166;2023-03-30T18:05:44;15.60;96.20
2913;DHT22;1466;48.778;9.166;2023-03-30T18:08:12;15.60;96.20
2913;DHT22;1466;48.778;9.166;2023-03-30T18:10:45;15.60;96.30
2913;DHT22;1466;48.778;9.166;2023-03-30T18:13:16;15.50;96.40
2913;DHT22;1466;48.778;9.166;2023-03-30T18:15:42;15.50;96.50
2913;DHT22;1466;48.778;9.166;2023-03-30T18:18:09;15.50;96.60
2913;DHT22;1466;48.778;9.166;2023-03-30T18:20:41;15.60;96.80
2913;DHT22;1466;48.778;9.166;2023-03-30T18:23:08;15.50;96.80
2913;DHT22;1466;48.778;9.166;2023-03-30T18:25:33;15.50;96.70
2913;DHT22;1466;48.778;9.166;2023-03-30T18:28:00;15.40;96.70
2913;DHT22;1466;48.778;9.166;2023-03-30T18:30:32;15.50;96.80
2913;DHT22;1466;48.778;9.166;2023-03-30T18:33:01;15.50;96.90
2913;DHT22;1466;48.778;9.166;2023-03-30T18:35:29;15.50;96.80
2913;DHT22;1466;48.778;9.166;2023-03-30T18:37:55;15.50;96.90
2913;DHT22;1466;48.778;9.166;2023-03-30T18:40:25;15.50;96.90
2913;DHT22;1466;48.778;9.166;2023-03-30T18:42:51;15.40;96.90
2913;DHT22;1466;48.778;9.166;2023-03-30T18:45:22;15.50;97.00
2913;DHT22;1466;48.778;9.166;2023-03-30T18:47:48;15.40;97.00
2913;DHT22;1466;48.778;9.166;2023-03-30T18:50:35;15.40;97.10
2913;DHT22;1466;48.778;9.166;2023-03-30T18:53:02;15.30;97.20
2913;DHT22;1466;48.778;9.166;2023-03-30T18:55:29;15.30;97.20
2913;DHT22;1466;48.778;9.166;2023-03-30T18:57:55;15.30;97.30
2913;DHT22;1466;48.778;9.166;2023-03-30T19:00:24;15.30;97.40
2913;DHT22;1466;48.778;9.166;2023-03-30T19:02:52;15.20;97.40